Mendon - 24 Hour Table
Date & TimeSolar
Radiation
(W/m²)
Wind
Speed
(mph)
Wind
Direction
(degrees)
Air
Temperature
(°F)
Relative
Humidity
(%)
Precipitation
(inches)
2017/08/20 17:00 66 0.0 202 84.5 32 0.00
2017/08/20 16:00 238 0.0 214 87.0 25 0.00
2017/08/20 15:00 757 0.3 176 86.8 22 0.00
2017/08/20 14:00 923 0.0 225 85.0 20 0.00
2017/08/20 13:00 958 0.0 231 82.4 23 0.00
2017/08/20 12:00 955 0.1 321 78.3 28 0.00
2017/08/20 11:00 844 0.0 311 75.4 31 0.00
2017/08/20 10:00 702 0.0 175 70.6 41 0.00
2017/08/20 09:00 400 0.0 148 64.8 42 0.00
2017/08/20 08:00 69 0.0 2 56.8 68 0.00
2017/08/20 07:00 36 0.0 291 52.7 63 0.00
2017/08/20 06:00 4 0.0 312 51.5 72 0.00
2017/08/20 05:00 2 0.0 307 52.9 67 0.00
2017/08/20 04:00 2 0.0 308 54.2 62 0.00
2017/08/20 03:00 2 0.0 305 54.6 68 0.00
2017/08/20 02:00 2 0.0 299 54.8 63 0.00
2017/08/20 01:00 2 0.0 317 56.2 64 0.00
2017/08/20 00:00 2 0.0 296 58.4 52 0.00
2017/08/19 23:00 2 0.0 268 60.2 50 0.00
2017/08/19 22:00 2 0.0 295 60.5 51 0.00
2017/08/19 21:00 3 0.0 274 62.8 48 0.00
2017/08/19 20:00 5 0.0 296 65.5 40 0.00
2017/08/19 19:00 26 0.0 11 72.6 37 0.00
2017/08/19 18:00 45 0.0 340 79.8 34 0.00